Time;durP1;ratioP1;P1;durP2;ratioP2;P2;SDS_P1;SDS_P2;PMS_P1;PMS_P2;Temp;Humidity;BMP_temperature;BMP_pressure;BME280_temperature;BME280_humidity;BME280_pressure;Samples;Min_cycle;Max_cycle;Signal;HPM_P1;HPM_P2
2022/11/03 00:00:30;;;;;;;1.77;0.20;;;11.00;99.90;;;;;;5006917;28;20149;-76
2022/11/03 00:02:55;;;;;;;1.63;0.38;;;11.00;99.90;;;;;;5009303;28;20061;-76
2022/11/03 00:08:05;;;;;;;1.92;0.20;;;11.00;99.90;;;;;;5010334;28;20575;-90
2022/11/03 00:10:31;;;;;;;3.50;0.40;;;10.90;99.90;;;;;;5008446;28;20105;-75
2022/11/03 00:12:57;;;;;;;3.22;0.30;;;10.80;99.90;;;;;;5025155;28;20037;-92
2022/11/03 00:15:22;;;;;;;3.67;0.20;;;10.80;99.90;;;;;;5007931;28;20029;-76
2022/11/03 00:17:48;;;;;;;2.13;0.20;;;10.70;99.90;;;;;;5013291;28;20057;-75
2022/11/03 00:20:13;;;;;;;2.00;0.20;;;10.70;99.90;;;;;;5066656;28;20025;-75
2022/11/03 00:22:39;;;;;;;4.10;0.30;;;10.70;99.90;;;;;;5066378;28;20040;-86
2022/11/03 00:25:05;;;;;;;3.40;0.30;;;10.70;99.90;;;;;;5047760;22;20056;-76
2022/11/03 00:27:31;;;;;;;2.00;0.20;;;10.70;99.90;;;;;;5001700;28;20049;-90
2022/11/03 00:29:57;;;;;;;3.83;0.30;;;10.70;99.90;;;;;;5005802;28;20039;-75
2022/11/03 00:32:23;;;;;;;2.38;0.20;;;10.70;99.90;;;;;;5007800;28;20466;-76
2022/11/03 00:34:49;;;;;;;2.67;0.30;;;10.60;99.90;;;;;;5002681;28;20053;-93
2022/11/03 00:37:14;;;;;;;2.60;0.30;;;10.60;99.90;;;;;;5001127;28;20026;-75
2022/11/03 00:39:40;;;;;;;6.68;0.60;;;10.60;99.90;;;;;;4990192;28;20506;-91
2022/11/03 00:42:06;;;;;;;3.22;0.82;;;10.60;99.90;;;;;;5015087;28;20113;-75
2022/11/03 00:44:31;;;;;;;1.52;0.20;;;10.60;99.90;;;;;;4988284;28;20023;-84
2022/11/03 00:46:57;;;;;;;2.45;0.30;;;10.60;99.90;;;;;;5005951;28;20041;-91
2022/11/03 00:49:22;;;;;;;4.13;0.40;;;10.60;99.90;;;;;;5015959;28;20026;-77
2022/11/03 00:51:48;;;;;;;3.22;0.50;;;10.60;99.90;;;;;;5015553;28;20398;-75
2022/11/03 00:54:14;;;;;;;5.05;0.22;;;10.50;99.90;;;;;;5014759;28;20122;-80
2022/11/03 00:56:41;;;;;;;2.85;0.30;;;10.60;99.90;;;;;;5003623;28;20026;-93
2022/11/03 00:59:08;;;;;;;2.85;0.30;;;10.50;99.90;;;;;;4998885;28;20052;-76
2022/11/03 01:01:39;;;;;;;6.35;0.40;;;10.50;99.90;;;;;;5005196;28;20221;-75
2022/11/03 01:06:53;;;;;;;2.95;0.30;;;10.50;99.90;;;;;;5021162;28;20030;-76
2022/11/03 01:09:34;;;;;;;3.72;0.32;;;10.50;99.90;;;;;;5004595;28;20053;-76
2022/11/03 01:12:06;;;;;;;3.28;0.30;;;10.50;99.90;;;;;;5007364;28;20022;-76
2022/11/03 01:14:38;;;;;;;5.30;0.70;;;10.50;99.90;;;;;;5019138;28;20129;-93
2022/11/03 01:17:06;;;;;;;3.72;0.30;;;10.50;99.90;;;;;;5008921;28;20073;-83
2022/11/03 01:19:31;;;;;;;3.85;0.45;;;10.40;99.90;;;;;;5005113;28;20578;-91
2022/11/03 01:21:57;;;;;;;4.80;0.40;;;10.50;99.90;;;;;;5007407;28;20132;-75
2022/11/03 01:24:23;;;;;;;4.60;0.40;;;10.50;99.90;;;;;;5006539;28;20057;-76
2022/11/03 01:26:49;;;;;;;3.80;0.30;;;10.40;99.90;;;;;;5025008;28;20045;-75
2022/11/03 01:29:15;;;;;;;3.83;0.30;;;10.40;99.90;;;;;;5009629;28;20026;-76
2022/11/03 01:31:40;;;;;;;2.95;0.32;;;10.40;99.90;;;;;;5007076;28;20022;-75
2022/11/03 01:34:06;;;;;;;3.72;0.38;;;10.40;99.90;;;;;;4993013;28;20033;-76
2022/11/03 01:36:32;;;;;;;2.58;0.30;;;10.30;99.90;;;;;;5007067;28;20399;-93
2022/11/03 01:38:57;;;;;;;2.75;0.30;;;10.30;99.90;;;;;;5004064;28;20021;-78
2022/11/03 01:41:27;;;;;;;3.17;0.30;;;10.30;99.90;;;;;;5011158;28;20516;-90
2022/11/03 01:44:07;;;;;;;4.05;0.30;;;10.20;99.90;;;;;;5002204;28;20041;-76
2022/11/03 01:46:55;;;;;;;3.85;0.30;;;10.30;99.90;;;;;;5008941;28;20037;-85
2022/11/03 01:49:45;;;;;;;4.50;0.47;;;10.20;99.90;;;;;;5018847;28;20030;-86
2022/11/03 01:52:24;;;;;;;3.05;0.30;;;10.30;99.90;;;;;;5006523;28;20517;-76
2022/11/03 01:55:06;;;;;;;4.43;0.30;;;10.20;99.90;;;;;;5006708;28;20042;-95
2022/11/03 01:57:51;;;;;;;4.10;0.40;;;10.20;99.90;;;;;;5021487;28;20449;-76
2022/11/03 02:00:17;;;;;;;5.10;0.30;;;10.20;99.90;;;;;;5002013;28;20061;-83
2022/11/03 02:02:43;;;;;;;5.20;0.50;;;10.20;99.90;;;;;;4993553;28;20073;-78
2022/11/03 02:05:10;;;;;;;2.60;0.20;;;10.20;99.90;;;;;;4987847;28;20118;-80
2022/11/03 02:07:51;;;;;;;2.85;0.20;;;10.20;99.90;;;;;;5001747;28;20557;-86
2022/11/03 02:10:17;;;;;;;2.10;0.20;;;10.20;99.90;;;;;;4992183;28;20076;-85
2022/11/03 02:12:43;;;;;;;3.75;0.30;;;10.20;99.90;;;;;;5005434;28;20032;-88
2022/11/03 02:15:12;;;;;;;3.75;0.93;;;10.20;99.90;;;;;;5004782;28;20025;-76
2022/11/03 02:17:40;;;;;;;2.15;0.20;;;10.20;99.90;;;;;;5006902;28;20061;-92
2022/11/03 02:20:21;;;;;;;2.75;0.40;;;10.20;99.90;;;;;;5004446;28;20030;-93
2022/11/03 02:23:18;;;;;;;2.28;0.30;;;10.10;99.90;;;;;;5005653;28;20050;-75
2022/11/03 02:25:46;;;;;;;1.88;0.20;;;10.10;99.90;;;;;;5010129;28;20097;-78
2022/11/03 02:28:15;;;;;;;3.35;0.30;;;10.10;99.90;;;;;;5021880;28;20464;-76
2022/11/03 02:30:48;;;;;;;4.95;0.68;;;10.10;99.90;;;;;;5000327;28;20030;-83
2022/11/03 02:33:38;;;;;;;3.15;0.30;;;10.10;99.90;;;;;;5005585;28;20045;-86
2022/11/03 02:36:27;;;;;;;5.32;0.35;;;10.10;99.90;;;;;;5019575;28;20025;-88
2022/11/03 02:39:15;;;;;;;3.10;0.30;;;10.10;99.90;;;;;;5005063;28;20482;-88
2022/11/03 02:41:42;;;;;;;2.47;0.30;;;10.10;99.90;;;;;;5007666;28;20383;-86
2022/11/03 02:44:13;;;;;;;2.90;0.30;;;10.10;99.90;;;;;;5019009;28;20044;-76
2022/11/03 02:46:41;;;;;;;4.63;0.40;;;10.10;99.90;;;;;;5010198;28;20032;-75
2022/11/03 02:49:07;;;;;;;5.20;0.20;;;10.10;99.90;;;;;;4991197;28;20040;-76
2022/11/03 02:51:33;;;;;;;5.32;0.35;;;10.00;99.90;;;;;;5017972;28;20038;-76
2022/11/03 02:54:11;;;;;;;4.40;0.30;;;10.00;99.90;;;;;;5001350;23;20050;-76
2022/11/03 02:56:49;;;;;;;2.63;0.30;;;10.00;99.90;;;;;;4987618;28;20056;-80
2022/11/03 02:59:21;;;;;;;2.95;0.28;;;10.00;99.90;;;;;;4983430;28;20043;-85
2022/11/03 03:02:07;;;;;;;4.20;0.30;;;10.00;99.90;;;;;;4984001;28;20049;-88
2022/11/03 03:04:41;;;;;;;3.40;0.40;;;10.10;99.90;;;;;;4985094;28;20125;-95
2022/11/03 03:07:19;;;;;;;1.17;0.20;;;10.00;99.90;;;;;;4982998;28;20035;-78
2022/11/03 03:09:59;;;;;;;3.47;0.30;;;10.10;99.90;;;;;;4981300;28;20038;-76
2022/11/03 03:12:26;;;;;;;3.72;0.40;;;10.10;99.90;;;;;;4987765;28;20463;-75
2022/11/03 03:14:54;;;;;;;2.92;0.30;;;10.10;99.90;;;;;;4989519;28;20395;-83
2022/11/03 03:17:30;;;;;;;2.97;0.28;;;10.10;99.90;;;;;;4981681;28;20483;-91
2022/11/03 03:20:18;;;;;;;3.63;0.28;;;10.20;99.90;;;;;;4987371;28;20073;-75
2022/11/03 03:23:05;;;;;;;3.10;0.35;;;10.20;99.90;;;;;;4984071;28;20066;-91
2022/11/03 03:25:37;;;;;;;6.40;0.40;;;10.20;99.90;;;;;;4987644;28;20030;-90
2022/11/03 03:28:11;;;;;;;4.15;0.20;;;10.20;99.90;;;;;;4981225;28;20023;-75
2022/11/03 03:30:38;;;;;;;3.88;0.60;;;10.20;99.90;;;;;;4989649;28;20035;-87
2022/11/03 03:33:05;;;;;;;5.50;0.30;;;10.20;99.90;;;;;;4982945;28;20113;-78
2022/11/03 03:35:33;;;;;;;4.30;0.30;;;10.20;99.90;;;;;;4989605;28;20041;-84
2022/11/03 03:38:07;;;;;;;3.28;0.52;;;10.30;99.90;;;;;;4970542;28;20048;-81
2022/11/03 03:40:37;;;;;;;2.85;0.32;;;10.20;99.90;;;;;;4984937;28;20038;-78
2022/11/03 03:43:06;;;;;;;3.05;0.20;;;10.20;99.90;;;;;;5000664;28;20046;-94
2022/11/03 03:45:35;;;;;;;2.90;0.30;;;10.20;99.90;;;;;;4989698;28;20501;-80
2022/11/03 03:48:02;;;;;;;4.57;0.30;;;10.20;99.90;;;;;;4984746;28;20035;-80
2022/11/03 03:50:33;;;;;;;5.57;0.35;;;10.30;99.90;;;;;;4968856;28;20027;-76
2022/11/03 03:53:04;;;;;;;4.97;0.30;;;10.30;99.90;;;;;;4986466;28;20092;-75
2022/11/03 03:55:36;;;;;;;4.53;0.35;;;10.30;99.90;;;;;;4988867;28;20117;-82
2022/11/03 03:58:03;;;;;;;2.97;0.30;;;10.30;99.90;;;;;;4987206;28;20038;-87
2022/11/03 04:00:29;;;;;;;3.10;0.30;;;10.30;99.90;;;;;;4987985;28;20026;-83
2022/11/03 04:02:58;;;;;;;2.28;0.30;;;10.40;99.90;;;;;;5000860;28;20090;-80
2022/11/03 04:05:25;;;;;;;6.63;0.30;;;10.40;99.90;;;;;;4987871;28;20031;-76
2022/11/03 04:07:51;;;;;;;1.85;0.20;;;10.40;99.90;;;;;;4983984;28;20434;-76
2022/11/03 04:10:21;;;;;;;2.90;0.28;;;10.30;99.90;;;;;;4984721;28;20121;-77
2022/11/03 04:22:15;;;;;;;3.35;0.30;;;10.30;99.90;;;;;;4980093;28;20069;-89
2022/11/03 04:23:59;;;;;;;3.42;0.30;;;10.40;99.90;;;;;;4987392;28;20046;-76
2022/11/03 04:26:26;;;;;;;3.40;0.30;;;10.40;99.90;;;;;;4984152;28;20038;-88
2022/11/03 04:28:52;;;;;;;1.98;0.30;;;10.30;99.90;;;;;;4998439;28;20026;-91
2022/11/03 04:31:19;;;;;;;4.22;0.40;;;10.40;99.90;;;;;;4997407;28;20403;-84
2022/11/03 04:33:46;;;;;;;2.45;0.20;;;10.40;99.90;;;;;;4998738;28;20093;-75
2022/11/03 04:36:15;;;;;;;2.78;0.30;;;10.40;99.90;;;;;;4981612;28;20217;-85
2022/11/03 04:38:42;;;;;;;2.88;0.32;;;10.40;99.90;;;;;;4983374;28;20387;-76
2022/11/03 04:41:17;;;;;;;1.25;0.25;;;10.40;99.90;;;;;;4969196;28;20038;-74
2022/11/03 04:43:45;;;;;;;3.75;0.50;;;10.40;99.90;;;;;;4983664;28;20491;-82
2022/11/03 04:46:14;;;;;;;4.30;0.40;;;10.40;99.90;;;;;;4979244;28;20038;-75
2022/11/03 04:48:40;;;;;;;3.20;0.32;;;10.50;99.90;;;;;;4997343;28;20045;-75
2022/11/03 04:51:28;;;;;;;4.28;0.45;;;10.40;99.90;;;;;;4983473;28;20026;-84
2022/11/03 04:54:12;;;;;;;4.30;0.35;;;10.50;99.90;;;;;;4980547;28;20042;-91
2022/11/03 04:56:39;;;;;;;4.55;0.52;;;10.50;99.90;;;;;;4970663;28;20034;-77
2022/11/03 05:01:33;;;;;;;2.40;0.20;;;10.50;99.90;;;;;;4955054;28;20118;-75
2022/11/03 05:03:59;;;;;;;3.95;0.30;;;10.50;99.90;;;;;;4935301;28;20010;-79
2022/11/03 05:06:29;;;;;;;6.22;0.40;;;10.50;99.90;;;;;;4955138;28;20042;-75
2022/11/03 05:09:04;;;;;;;4.40;0.40;;;10.50;99.90;;;;;;4964052;28;20027;-75
2022/11/03 05:11:36;;;;;;;4.00;0.43;;;10.50;99.90;;;;;;4956898;28;20034;-85
2022/11/03 05:14:11;;;;;;;3.90;0.30;;;10.40;99.90;;;;;;4958112;28;20122;-76
2022/11/03 05:16:37;;;;;;;4.72;0.80;;;10.40;99.90;;;;;;4964228;28;20023;-83
2022/11/03 05:19:03;;;;;;;3.10;0.30;;;10.40;99.90;;;;;;4960644;28;20095;-75
2022/11/03 05:21:29;;;;;;;3.28;0.22;;;10.40;99.90;;;;;;4934048;28;20487;-92
2022/11/03 05:24:02;;;;;;;3.92;0.68;;;10.40;99.90;;;;;;4955107;28;20087;-76
2022/11/03 05:26:37;;;;;;;3.45;0.40;;;10.40;99.90;;;;;;4975598;23;20089;-88
2022/11/03 05:29:12;;;;;;;2.10;0.43;;;10.40;99.90;;;;;;4968048;28;20034;-79
2022/11/03 05:31:40;;;;;;;7.75;0.45;;;10.40;99.90;;;;;;4991022;28;20046;-76
2022/11/03 05:34:20;;;;;;;2.15;0.30;;;10.40;99.90;;;;;;4980680;28;20129;-92
2022/11/03 05:36:46;;;;;;;1.88;0.30;;;10.40;99.90;;;;;;4985422;28;20248;-75
2022/11/03 05:39:33;;;;;;;3.40;0.30;;;10.50;99.90;;;;;;4972026;28;20173;-91
2022/11/03 05:42:00;;;;;;;6.15;0.60;;;10.40;99.90;;;;;;4978821;28;20034;-77
2022/11/03 05:44:35;;;;;;;4.05;0.30;;;10.40;99.90;;;;;;4977966;28;20037;-87
2022/11/03 05:47:12;;;;;;;2.47;0.30;;;10.40;99.90;;;;;;4990946;28;20022;-75
2022/11/03 05:49:38;;;;;;;2.22;0.20;;;10.40;99.90;;;;;;4974303;28;20057;-90
2022/11/03 05:52:11;;;;;;;2.47;0.60;;;10.40;99.90;;;;;;4976654;28;20444;-93
2022/11/03 05:54:37;;;;;;;3.17;0.40;;;10.40;99.90;;;;;;4981076;28;20475;-76
2022/11/03 05:57:10;;;;;;;3.80;0.40;;;10.40;99.90;;;;;;4996582;28;20114;-93
2022/11/03 05:59:36;;;;;;;4.47;0.40;;;10.40;99.90;;;;;;4999408;28;20022;-76
2022/11/03 06:02:07;;;;;;;3.17;0.20;;;10.40;99.90;;;;;;4973578;28;20083;-92
2022/11/03 06:04:37;;;;;;;5.35;0.70;;;10.40;99.90;;;;;;4983135;28;20043;-79
2022/11/03 06:07:10;;;;;;;3.20;0.30;;;10.40;99.90;;;;;;4986321;28;20076;-75
2022/11/03 06:09:35;;;;;;;3.50;0.40;;;10.50;99.90;;;;;;4977582;28;20038;-83
2022/11/03 06:12:05;;;;;;;8.35;0.40;;;10.40;99.90;;;;;;4990596;28;20034;-75
2022/11/03 06:14:31;;;;;;;6.47;0.40;;;10.40;99.90;;;;;;4988168;28;20030;-76
2022/11/03 06:17:06;;;;;;;5.63;0.38;;;10.50;99.90;;;;;;4992701;28;20498;-83
2022/11/03 06:19:36;;;;;;;3.50;0.30;;;10.50;99.90;;;;;;4958213;28;20030;-90
2022/11/03 06:22:14;;;;;;;2.47;0.28;;;10.50;99.90;;;;;;4996892;28;20034;-92
2022/11/03 06:24:40;;;;;;;2.92;0.30;;;10.50;99.90;;;;;;4984130;28;20147;-78
2022/11/03 06:27:11;;;;;;;2.55;0.40;;;10.50;99.90;;;;;;4993731;28;20096;-91
2022/11/03 06:29:37;;;;;;;5.07;0.80;;;10.50;99.90;;;;;;4996372;28;20108;-76
2022/11/03 06:32:03;;;;;;;4.13;0.45;;;10.50;99.90;;;;;;4981590;28;20122;-79
2022/11/03 06:34:45;;;;;;;3.50;0.30;;;10.50;99.90;;;;;;4970801;28;20116;-76
2022/11/03 06:37:20;;;;;;;2.97;0.30;;;10.50;99.90;;;;;;4966788;28;20058;-76
2022/11/03 06:39:47;;;;;;;3.78;0.30;;;10.50;99.90;;;;;;4966860;28;20391;-75
2022/11/03 06:42:14;;;;;;;4.95;0.30;;;10.60;99.90;;;;;;4977719;28;20038;-76
2022/11/03 06:44:46;;;;;;;2.95;0.40;;;10.60;99.90;;;;;;4995638;28;20058;-76
2022/11/03 06:47:23;;;;;;;4.03;0.32;;;10.60;99.90;;;;;;4984832;28;20030;-75
2022/11/03 06:49:51;;;;;;;4.28;0.30;;;10.60;99.90;;;;;;4996511;28;20033;-81
2022/11/03 06:52:25;;;;;;;4.68;1.10;;;10.60;99.90;;;;;;4994217;28;20118;-75
2022/11/03 06:55:05;;;;;;;6.22;0.30;;;10.60;99.90;;;;;;4985072;28;20034;-76
2022/11/03 06:57:36;;;;;;;4.05;0.40;;;10.70;99.90;;;;;;4994896;28;20022;-76
2022/11/03 07:00:11;;;;;;;3.40;0.40;;;10.70;99.90;;;;;;4955881;28;20045;-80
2022/11/03 07:02:49;;;;;;;2.13;0.40;;;10.80;99.90;;;;;;4952347;28;20507;-75
2022/11/03 07:05:33;;;;;;;3.22;0.40;;;10.80;99.90;;;;;;4952264;28;20027;-78
2022/11/03 07:08:02;;;;;;;3.17;0.35;;;10.90;99.90;;;;;;4995426;28;20025;-82
2022/11/03 07:10:31;;;;;;;5.22;0.30;;;10.90;99.90;;;;;;4966656;28;20031;-83
2022/11/03 07:13:03;;;;;;;5.25;0.50;;;10.90;99.90;;;;;;4984149;28;20292;-81
2022/11/03 07:15:34;;;;;;;2.92;0.40;;;10.90;99.90;;;;;;4976134;28;20037;-76
2022/11/03 07:18:01;;;;;;;3.13;0.30;;;11.00;99.90;;;;;;4949429;28;20034;-75
2022/11/03 07:20:27;;;;;;;2.08;0.30;;;11.00;99.90;;;;;;4982818;28;20096;-81
2022/11/03 07:22:59;;;;;;;3.53;0.30;;;11.00;99.90;;;;;;4970846;28;20125;-95
2022/11/03 07:25:24;;;;;;;3.53;0.40;;;11.00;99.90;;;;;;4978046;28;20497;-80
2022/11/03 07:27:53;;;;;;;5.15;0.38;;;11.10;99.90;;;;;;4955958;28;20456;-84
2022/11/03 07:30:23;;;;;;;3.92;0.40;;;11.10;99.90;;;;;;4927667;28;20023;-81
2022/11/03 07:32:52;;;;;;;7.93;0.40;;;11.20;99.90;;;;;;4961558;28;20054;-76
2022/11/03 07:35:17;;;;;;;3.47;0.55;;;11.10;99.90;;;;;;4942023;28;20035;-88
2022/11/03 07:37:49;;;;;;;5.35;0.55;;;11.20;99.90;;;;;;4957488;28;20394;-75
2022/11/03 07:40:18;;;;;;;6.05;0.43;;;11.20;99.90;;;;;;4926576;28;20500;-75
2022/11/03 07:42:44;;;;;;;2.75;0.40;;;11.30;99.90;;;;;;4954335;28;20093;-78
2022/11/03 07:45:39;;;;;;;3.17;0.40;;;11.30;99.90;;;;;;4954346;28;20480;-75
2022/11/03 07:48:25;;;;;;;5.30;0.40;;;11.30;99.90;;;;;;4938940;28;20027;-77
2022/11/03 07:50:53;;;;;;;3.97;0.55;;;11.40;99.90;;;;;;4937748;28;20126;-83
2022/11/03 07:53:36;;;;;;;3.58;0.30;;;11.40;99.90;;;;;;4957287;28;20106;-91
2022/11/03 07:56:14;;;;;;;3.55;0.57;;;11.40;99.90;;;;;;4952645;28;20027;-76
2022/11/03 07:58:41;;;;;;;6.85;0.50;;;11.50;99.90;;;;;;4956745;28;20034;-76
2022/11/03 08:01:39;;;;;;;3.50;0.50;;;11.50;99.90;;;;;;4955407;28;20053;-75
2022/11/03 08:04:07;;;;;;;6.88;0.60;;;11.50;99.90;;;;;;4930001;28;20054;-89
2022/11/03 08:06:33;;;;;;;4.95;0.32;;;11.60;99.90;;;;;;4928666;28;20028;-76
2022/11/03 08:08:59;;;;;;;4.30;0.73;;;11.70;99.90;;;;;;4956609;28;20038;-75
2022/11/03 08:11:25;;;;;;;4.25;0.40;;;11.70;99.90;;;;;;4956167;28;20030;-76
2022/11/03 08:13:51;;;;;;;4.35;0.50;;;11.70;99.90;;;;;;4954201;28;20411;-89
2022/11/03 08:16:17;;;;;;;5.88;0.90;;;11.70;99.90;;;;;;4955901;28;20203;-77
2022/11/03 08:18:43;;;;;;;3.00;0.40;;;11.80;99.90;;;;;;4956480;28;20074;-78
2022/11/03 08:21:08;;;;;;;2.25;0.50;;;11.90;99.90;;;;;;4958620;28;20394;-75
2022/11/03 08:23:34;;;;;;;4.25;0.55;;;11.90;99.90;;;;;;4939456;28;20049;-75
2022/11/03 08:26:00;;;;;;;3.63;0.30;;;11.90;99.90;;;;;;4935867;28;20057;-76
2022/11/03 08:28:26;;;;;;;1.95;0.40;;;11.90;99.90;;;;;;4938349;28;20077;-77
2022/11/03 08:30:51;;;;;;;4.03;0.40;;;12.00;99.90;;;;;;4931209;28;20023;-76
2022/11/03 08:33:17;;;;;;;5.72;0.40;;;12.00;99.90;;;;;;4963460;28;20044;-83
2022/11/03 08:35:43;;;;;;;4.32;0.43;;;12.10;99.90;;;;;;4972974;28;20054;-78
2022/11/03 08:38:08;;;;;;;3.83;0.40;;;12.10;99.90;;;;;;4931600;28;20096;-82
2022/11/03 08:40:34;;;;;;;3.10;0.75;;;12.10;99.90;;;;;;4958574;28;20033;-75
2022/11/03 08:43:03;;;;;;;6.07;0.50;;;12.10;99.90;;;;;;4976623;28;20050;-75
2022/11/03 08:45:29;;;;;;;4.30;0.40;;;12.10;99.90;;;;;;4975651;28;20581;-76
2022/11/03 08:47:55;;;;;;;4.13;0.40;;;12.10;99.90;;;;;;4945052;28;20062;-83
2022/11/03 08:50:21;;;;;;;2.03;0.30;;;12.10;99.90;;;;;;4973754;28;21230;-76
2022/11/03 08:52:48;;;;;;;2.78;0.30;;;12.20;99.90;;;;;;4935946;28;20134;-82
2022/11/03 08:55:14;;;;;;;2.47;0.40;;;12.20;99.90;;;;;;4954563;28;20471;-77
2022/11/03 08:57:40;;;;;;;3.53;0.40;;;12.30;99.90;;;;;;4935371;28;20045;-77
2022/11/03 09:00:06;;;;;;;4.03;0.40;;;12.20;99.90;;;;;;4930388;28;20031;-76
2022/11/03 09:02:33;;;;;;;3.97;0.45;;;12.30;99.90;;;;;;4973986;28;20384;-77
2022/11/03 09:04:59;;;;;;;1.95;0.32;;;12.30;99.90;;;;;;4929030;28;20023;-82
2022/11/03 09:07:24;;;;;;;1.90;0.30;;;12.30;99.90;;;;;;4952387;28;20529;-77
2022/11/03 09:09:50;;;;;;;2.55;0.35;;;12.40;99.90;;;;;;4976254;28;20033;-91
2022/11/03 09:12:16;;;;;;;1.90;0.30;;;12.40;99.90;;;;;;4935241;28;20038;-76
2022/11/03 09:14:41;;;;;;;3.53;0.35;;;12.50;99.90;;;;;;4956388;28;20365;-76
2022/11/03 09:17:07;;;;;;;5.97;0.88;;;12.40;99.90;;;;;;4974033;28;20464;-77
2022/11/03 09:19:32;;;;;;;3.97;0.30;;;12.50;99.90;;;;;;4952178;28;20761;-92
2022/11/03 09:21:59;;;;;;;2.60;0.25;;;12.60;99.90;;;;;;4944608;28;20057;-77
2022/11/03 09:24:25;;;;;;;4.50;0.47;;;12.70;99.90;;;;;;4977602;28;20030;-77
2022/11/03 09:26:51;;;;;;;4.10;0.47;;;12.80;99.90;;;;;;4955860;28;20055;-76
2022/11/03 09:29:17;;;;;;;5.13;1.05;;;12.90;99.90;;;;;;4963201;28;20035;-77
2022/11/03 09:31:42;;;;;;;5.25;0.43;;;12.90;99.90;;;;;;4976215;28;20045;-76
2022/11/03 09:34:08;;;;;;;5.15;0.40;;;13.00;99.90;;;;;;4976155;28;20045;-75
2022/11/03 09:36:34;;;;;;;2.25;0.40;;;13.10;99.90;;;;;;4956093;28;20038;-76
2022/11/03 09:38:59;;;;;;;1.98;0.40;;;13.20;99.90;;;;;;4959331;28;20165;-83
2022/11/03 09:41:25;;;;;;;2.65;0.30;;;13.20;99.90;;;;;;4976639;28;20106;-80
2022/11/03 09:43:52;;;;;;;4.53;0.50;;;13.30;99.90;;;;;;4975294;28;20042;-79
2022/11/03 09:46:18;;;;;;;4.45;0.40;;;13.30;99.90;;;;;;4975283;28;20516;-76
2022/11/03 09:48:44;;;;;;;2.92;0.50;;;13.40;99.90;;;;;;4977101;28;20754;-77
2022/11/03 09:51:16;;;;;;;2.15;0.20;;;13.40;99.90;;;;;;4979099;28;20038;-76
2022/11/03 09:53:42;;;;;;;2.85;0.40;;;13.40;99.90;;;;;;4959594;28;20106;-77
2022/11/03 09:56:09;;;;;;;5.28;0.30;;;13.40;99.90;;;;;;4976261;28;20130;-76
2022/11/03 09:58:35;;;;;;;3.78;0.30;;;13.30;99.90;;;;;;4976985;28;20391;-89
2022/11/03 10:01:01;;;;;;;6.68;0.50;;;13.30;99.90;;;;;;4978024;28;20672;-84
2022/11/03 10:03:28;;;;;;;2.13;0.30;;;13.30;99.90;;;;;;4944896;28;20416;-80
2022/11/03 10:05:54;;;;;;;2.75;0.30;;;13.30;99.90;;;;;;4968037;28;20034;-86
2022/11/03 10:08:24;;;;;;;2.30;0.30;;;13.40;99.90;;;;;;4949760;28;20038;-86
2022/11/03 10:10:51;;;;;;;2.80;0.30;;;13.40;99.90;;;;;;4969102;28;20030;-75
2022/11/03 10:13:30;;;;;;;2.50;0.30;;;13.40;99.90;;;;;;4968289;28;20038;-75
2022/11/03 10:15:58;;;;;;;2.50;0.40;;;13.50;99.90;;;;;;4970171;28;20105;-88
2022/11/03 10:18:26;;;;;;;4.38;0.32;;;13.50;99.90;;;;;;4951113;28;20027;-81
2022/11/03 10:20:52;;;;;;;5.28;0.30;;;13.50;99.90;;;;;;4967180;28;20034;-79
2022/11/03 10:23:17;;;;;;;5.10;0.40;;;13.60;99.90;;;;;;4929632;28;20090;-80
2022/11/03 10:25:44;;;;;;;2.45;0.30;;;13.60;99.90;;;;;;4968955;28;20035;-83
2022/11/03 10:28:17;;;;;;;1.80;0.30;;;13.70;99.90;;;;;;4931244;28;20105;-76
2022/11/03 10:30:55;;;;;;;1.13;0.20;;;13.70;99.90;;;;;;4970459;28;20035;-76
2022/11/03 10:33:27;;;;;;;2.35;0.20;;;13.70;99.90;;;;;;4966602;28;20027;-76
2022/11/03 10:35:52;;;;;;;3.15;0.40;;;13.70;99.90;;;;;;4951177;28;20034;-78
2022/11/03 10:38:26;;;;;;;3.05;0.40;;;13.70;99.90;;;;;;4967871;28;20027;-78
2022/11/03 10:40:52;;;;;;;2.25;0.50;;;13.70;99.90;;;;;;4970414;28;20038;-87
2022/11/03 10:43:18;;;;;;;1.58;0.30;;;13.70;99.90;;;;;;4946466;28;20117;-76
2022/11/03 10:45:43;;;;;;;2.03;0.47;;;13.70;99.90;;;;;;4970469;28;20070;-76
2022/11/03 10:48:10;;;;;;;4.53;0.30;;;13.60;99.90;;;;;;4963076;28;20106;-76
2022/11/03 10:50:38;;;;;;;3.85;0.40;;;13.60;99.90;;;;;;4967631;28;20551;-83
2022/11/03 10:53:05;;;;;;;4.57;0.40;;;13.60;99.90;;;;;;4944538;28;20439;-76
2022/11/03 10:55:31;;;;;;;3.55;0.47;;;13.70;99.90;;;;;;4965449;28;20043;-76
2022/11/03 10:57:57;;;;;;;2.70;0.40;;;13.70;99.90;;;;;;4968082;28;20030;-76
2022/11/03 11:00:23;;;;;;;3.15;0.50;;;13.80;99.90;;;;;;4967818;28;20220;-81
2022/11/03 11:02:57;;;;;;;3.35;0.30;;;13.80;99.90;;;;;;4969936;28;20479;-77
2022/11/03 11:05:23;;;;;;;2.10;0.30;;;13.80;99.90;;;;;;4962915;28;20023;-75
2022/11/03 11:07:51;;;;;;;2.72;0.38;;;13.90;99.90;;;;;;4967231;28;20034;-76
2022/11/03 11:10:28;;;;;;;3.70;0.40;;;13.90;99.90;;;;;;4962366;28;20030;-76
2022/11/03 11:13:20;;;;;;;1.25;0.30;;;13.80;99.90;;;;;;4964826;28;20031;-86
2022/11/03 11:15:50;;;;;;;2.70;0.40;;;13.80;99.90;;;;;;4941886;28;20203;-76
2022/11/03 11:18:28;;;;;;;3.17;0.40;;;13.90;99.90;;;;;;4968494;28;20023;-76
2022/11/03 11:20:57;;;;;;;3.95;0.40;;;13.80;99.90;;;;;;4962584;28;20078;-80
2022/11/03 11:23:26;;;;;;;2.45;0.30;;;13.90;99.90;;;;;;4969986;28;20041;-88
2022/11/03 11:26:23;;;;;;;1.70;0.30;;;13.90;99.90;;;;;;4968131;28;20050;-75
2022/11/03 11:29:07;;;;;;;2.53;0.30;;;13.90;99.90;;;;;;4968293;28;20054;-76
2022/11/03 11:31:34;;;;;;;2.70;0.40;;;14.00;99.90;;;;;;4963971;28;20318;-81
2022/11/03 11:34:09;;;;;;;1.90;0.30;;;14.00;99.90;;;;;;4950386;28;20026;-76
2022/11/03 11:36:46;;;;;;;3.92;0.40;;;14.10;99.90;;;;;;4966357;28;20041;-80
2022/11/03 11:39:27;;;;;;;4.07;0.40;;;14.10;99.90;;;;;;4945365;28;20026;-76
2022/11/03 11:42:18;;;;;;;3.88;0.30;;;14.20;99.90;;;;;;4968338;28;20023;-76
2022/11/03 11:44:52;;;;;;;3.17;0.40;;;14.30;99.90;;;;;;4966735;28;20485;-76
2022/11/03 11:47:25;;;;;;;1.77;0.32;;;14.30;99.90;;;;;;4932914;28;20030;-76
2022/11/03 11:50:08;;;;;;;2.78;0.40;;;14.40;99.90;;;;;;4967663;28;20034;-80
2022/11/03 11:52:56;;;;;;;2.45;0.50;;;14.40;99.90;;;;;;4966015;28;20030;-78
2022/11/03 11:55:36;;;;;;;3.13;0.40;;;14.50;99.90;;;;;;4966813;28;20062;-78
2022/11/03 11:58:04;;;;;;;4.20;0.50;;;14.60;99.90;;;;;;4961074;28;20041;-76
2022/11/03 12:00:33;;;;;;;4.72;0.40;;;14.60;99.90;;;;;;4970001;28;20042;-76
2022/11/03 12:03:00;;;;;;;3.45;0.57;;;14.60;99.90;;;;;;4946207;28;20621;-83
2022/11/03 12:05:30;;;;;;;3.05;0.40;;;14.60;99.90;;;;;;4968622;28;20024;-87
2022/11/03 12:07:56;;;;;;;4.18;0.40;;;14.50;99.90;;;;;;4956374;28;20365;-88
2022/11/03 12:10:27;;;;;;;4.93;0.85;;;14.50;99.90;;;;;;4964596;28;20098;-76
2022/11/03 12:12:55;;;;;;;3.00;0.30;;;14.50;99.90;;;;;;4966518;28;20034;-76
2022/11/03 12:15:49;;;;;;;3.00;0.30;;;14.50;99.90;;;;;;4927515;28;20038;-83
2022/11/03 12:18:42;;;;;;;5.22;0.43;;;14.50;99.90;;;;;;4965002;28;20034;-76
2022/11/03 12:21:13;;;;;;;3.38;0.57;;;14.50;99.90;;;;;;4930336;28;20110;-76
2022/11/03 12:23:45;;;;;;;1.63;0.43;;;14.60;99.90;;;;;;4964001;28;20063;-77
2022/11/03 12:26:36;;;;;;;3.75;0.40;;;14.60;99.90;;;;;;4967427;28;20059;-91
2022/11/03 12:29:04;;;;;;;;;;;14.60;99.90;;;;;;4963560;28;20062;-78
2022/11/03 12:31:29;;;;;;;2.70;0.40;;;14.70;99.90;;;;;;4961294;28;19914;-76
2022/11/03 12:33:55;;;;;;;2.65;0.35;;;14.70;99.90;;;;;;4968101;28;20361;-79
2022/11/03 12:36:20;;;;;;;4.70;0.30;;;14.80;99.90;;;;;;4945216;28;20092;-76
2022/11/03 12:38:46;;;;;;;4.82;0.38;;;14.80;99.90;;;;;;4970864;28;20547;-76
2022/11/03 12:41:21;;;;;;;1.80;0.25;;;14.90;99.90;;;;;;4966638;28;20106;-88
2022/11/03 12:43:51;;;;;;;1.75;0.30;;;15.00;99.90;;;;;;4942895;28;20054;-80
2022/11/03 12:46:19;;;;;;;2.88;0.30;;;15.00;99.90;;;;;;4964906;28;20026;-81
2022/11/03 12:48:46;;;;;;;3.08;0.20;;;15.00;99.90;;;;;;4965693;28;20030;-82
2022/11/03 12:51:16;;;;;;;2.83;0.35;;;15.00;99.90;;;;;;4966277;28;20015;-76
2022/11/03 12:53:43;;;;;;;3.15;0.30;;;15.00;99.90;;;;;;4931228;28;20130;-77
2022/11/03 12:56:10;;;;;;;4.03;0.40;;;15.10;99.90;;;;;;4938441;28;20031;-86
2022/11/03 12:58:36;;;;;;;2.45;0.30;;;15.10;99.90;;;;;;4965703;28;20039;-84
2022/11/03 13:01:02;;;;;;;2.58;0.30;;;15.10;99.90;;;;;;4928304;28;20041;-77
2022/11/03 13:03:28;;;;;;;1.60;0.20;;;15.10;99.90;;;;;;4966414;28;20400;-76
2022/11/03 13:05:54;;;;;;;1.95;0.30;;;15.10;99.90;;;;;;4948069;28;20038;-83
2022/11/03 13:08:20;;;;;;;1.33;0.25;;;15.10;99.90;;;;;;4963358;28;20113;-77
2022/11/03 13:10:46;;;;;;;2.88;0.40;;;15.10;99.90;;;;;;4944162;28;20515;-76
2022/11/03 13:13:11;;;;;;;2.35;0.30;;;15.10;99.90;;;;;;4963704;28;20038;-79
2022/11/03 13:15:37;;;;;;;2.70;0.30;;;15.00;99.90;;;;;;4947837;28;20150;-83
2022/11/03 13:18:06;;;;;;;2.78;0.30;;;15.10;99.90;;;;;;4960654;28;20087;-82
2022/11/03 13:20:33;;;;;;;3.42;0.30;;;15.10;99.90;;;;;;4944058;28;20027;-86